sensor_id;sensor_type;location;lat;lon;timestamp;temperature;humidity
40622;DHT22;26324;52.040;11.528;2022-11-15T00:01:42;5.80;89.30
40622;DHT22;26324;52.040;11.528;2022-11-15T00:04:08;5.80;89.20
40622;DHT22;26324;52.040;11.528;2022-11-15T00:06:35;5.70;89.10
40622;DHT22;26324;52.040;11.528;2022-11-15T00:09:01;5.70;89.10
40622;DHT22;26324;52.040;11.528;2022-11-15T00:11:27;5.60;89.20
40622;DHT22;26324;52.040;11.528;2022-11-15T00:13:57;5.60;89.20
40622;DHT22;26324;52.040;11.528;2022-11-15T00:16:23;5.60;89.30
40622;DHT22;26324;52.040;11.528;2022-11-15T00:18:49;5.50;89.30
40622;DHT22;26324;52.040;11.528;2022-11-15T00:21:15;5.50;89.30
40622;DHT22;26324;52.040;11.528;2022-11-15T00:23:41;5.50;89.30
40622;DHT22;26324;52.040;11.528;2022-11-15T00:26:07;5.40;89.40
40622;DHT22;26324;52.040;11.528;2022-11-15T00:28:35;5.50;89.50
40622;DHT22;26324;52.040;11.528;2022-11-15T00:31:06;5.50;89.80
40622;DHT22;26324;52.040;11.528;2022-11-15T00:33:33;5.40;89.70
40622;DHT22;26324;52.040;11.528;2022-11-15T00:36:03;5.40;89.80
40622;DHT22;26324;52.040;11.528;2022-11-15T00:38:33;5.50;89.90
40622;DHT22;26324;52.040;11.528;2022-11-15T00:40:59;5.40;89.70
40622;DHT22;26324;52.040;11.528;2022-11-15T00:43:25;5.40;89.50
40622;DHT22;26324;52.040;11.528;2022-11-15T00:45:50;5.40;89.70
40622;DHT22;26324;52.040;11.528;2022-11-15T00:48:16;5.30;89.70
40622;DHT22;26324;52.040;11.528;2022-11-15T00:50:41;5.40;90.10
40622;DHT22;26324;52.040;11.528;2022-11-15T00:53:07;5.40;90.20
40622;DHT22;26324;52.040;11.528;2022-11-15T00:55:32;5.50;90.30
40622;DHT22;26324;52.040;11.528;2022-11-15T00:57:58;5.50;90.40
40622;DHT22;26324;52.040;11.528;2022-11-15T01:00:23;5.50;90.30
40622;DHT22;26324;52.040;11.528;2022-11-15T01:02:49;5.50;90.20
40622;DHT22;26324;52.040;11.528;2022-11-15T01:05:14;5.50;90.10
40622;DHT22;26324;52.040;11.528;2022-11-15T01:07:40;5.40;90.10
40622;DHT22;26324;52.040;11.528;2022-11-15T01:10:06;5.30;90.00
40622;DHT22;26324;52.040;11.528;2022-11-15T01:12:32;5.30;90.00
40622;DHT22;26324;52.040;11.528;2022-11-15T01:14:57;5.20;89.90
40622;DHT22;26324;52.040;11.528;2022-11-15T01:17:23;5.10;90.00
40622;DHT22;26324;52.040;11.528;2022-11-15T01:19:49;5.10;90.20
40622;DHT22;26324;52.040;11.528;2022-11-15T01:22:14;5.10;90.30
40622;DHT22;26324;52.040;11.528;2022-11-15T01:24:40;5.10;90.30
40622;DHT22;26324;52.040;11.528;2022-11-15T01:27:06;5.10;90.20
40622;DHT22;26324;52.040;11.528;2022-11-15T01:29:32;5.10;90.10
40622;DHT22;26324;52.040;11.528;2022-11-15T01:31:57;5.00;90.10
40622;DHT22;26324;52.040;11.528;2022-11-15T01:34:23;4.90;90.30
40622;DHT22;26324;52.040;11.528;2022-11-15T01:36:50;4.80;90.30
40622;DHT22;26324;52.040;11.528;2022-11-15T01:39:16;4.80;90.40
40622;DHT22;26324;52.040;11.528;2022-11-15T01:41:42;4.80;90.70
40622;DHT22;26324;52.040;11.528;2022-11-15T01:47:19;4.90;90.70
40622;DHT22;26324;52.040;11.528;2022-11-15T01:49:55;5.00;90.60
40622;DHT22;26324;52.040;11.528;2022-11-15T01:52:24;5.00;90.00
40622;DHT22;26324;52.040;11.528;2022-11-15T01:57:26;5.00;89.10
40622;DHT22;26324;52.040;11.528;2022-11-15T01:59:52;4.80;88.70
40622;DHT22;26324;52.040;11.528;2022-11-15T02:02:18;4.80;88.70
40622;DHT22;26324;52.040;11.528;2022-11-15T02:04:46;4.70;88.60
40622;DHT22;26324;52.040;11.528;2022-11-15T02:07:17;4.60;88.70
40622;DHT22;26324;52.040;11.528;2022-11-15T02:09:44;4.60;88.90
40622;DHT22;26324;52.040;11.528;2022-11-15T02:12:13;4.50;89.30
40622;DHT22;26324;52.040;11.528;2022-11-15T02:14:42;4.50;89.70
40622;DHT22;26324;52.040;11.528;2022-11-15T02:17:21;4.50;89.90
40622;DHT22;26324;52.040;11.528;2022-11-15T02:26:27;4.50;90.10
40622;DHT22;26324;52.040;11.528;2022-11-15T02:29:05;4.30;90.30
40622;DHT22;26324;52.040;11.528;2022-11-15T02:31:48;4.30;90.60
40622;DHT22;26324;52.040;11.528;2022-11-15T02:39:51;4.20;91.10
40622;DHT22;26324;52.040;11.528;2022-11-15T02:42:20;4.30;91.20
40622;DHT22;26324;52.040;11.528;2022-11-15T02:45:08;4.30;91.30
40622;DHT22;26324;52.040;11.528;2022-11-15T02:47:41;4.30;91.30
40622;DHT22;26324;52.040;11.528;2022-11-15T02:50:12;4.40;91.30
40622;DHT22;26324;52.040;11.528;2022-11-15T02:52:39;4.40;91.40
40622;DHT22;26324;52.040;11.528;2022-11-15T02:55:25;4.60;91.70
40622;DHT22;26324;52.040;11.528;2022-11-15T02:58:04;4.70;91.70
40622;DHT22;26324;52.040;11.528;2022-11-15T03:00:36;4.70;91.70
40622;DHT22;26324;52.040;11.528;2022-11-15T03:03:21;4.80;91.50
40622;DHT22;26324;52.040;11.528;2022-11-15T03:06:16;4.80;91.20
40622;DHT22;26324;52.040;11.528;2022-11-15T03:09:03;4.70;90.90
40622;DHT22;26324;52.040;11.528;2022-11-15T03:11:33;4.60;90.50
40622;DHT22;26324;52.040;11.528;2022-11-15T03:14:20;4.50;90.40
40622;DHT22;26324;52.040;11.528;2022-11-15T03:16:48;4.40;90.50
40622;DHT22;26324;52.040;11.528;2022-11-15T03:19:26;4.30;90.40
40622;DHT22;26324;52.040;11.528;2022-11-15T03:21:55;4.20;90.60
40622;DHT22;26324;52.040;11.528;2022-11-15T03:24:23;4.20;90.50
40622;DHT22;26324;52.040;11.528;2022-11-15T03:26:53;4.10;90.80
40622;DHT22;26324;52.040;11.528;2022-11-15T03:29:26;4.00;91.20
40622;DHT22;26324;52.040;11.528;2022-11-15T03:31:58;4.00;91.50
40622;DHT22;26324;52.040;11.528;2022-11-15T03:34:50;4.10;91.60
40622;DHT22;26324;52.040;11.528;2022-11-15T03:37:21;4.10;91.60
40622;DHT22;26324;52.040;11.528;2022-11-15T03:39:47;4.30;91.20
40622;DHT22;26324;52.040;11.528;2022-11-15T03:42:23;4.30;90.40
40622;DHT22;26324;52.040;11.528;2022-11-15T03:44:59;4.10;89.80
40622;DHT22;26324;52.040;11.528;2022-11-15T03:50:09;4.00;90.30
40622;DHT22;26324;52.040;11.528;2022-11-15T03:52:36;4.10;90.10
40622;DHT22;26324;52.040;11.528;2022-11-15T03:55:05;4.00;90.10
40622;DHT22;26324;52.040;11.528;2022-11-15T03:57:31;3.80;90.20
40622;DHT22;26324;52.040;11.528;2022-11-15T03:59:57;3.80;90.60
40622;DHT22;26324;52.040;11.528;2022-11-15T04:02:22;3.80;91.00
40622;DHT22;26324;52.040;11.528;2022-11-15T04:04:48;3.90;91.10
40622;DHT22;26324;52.040;11.528;2022-11-15T04:07:13;3.90;91.20
40622;DHT22;26324;52.040;11.528;2022-11-15T04:09:39;3.90;91.20
40622;DHT22;26324;52.040;11.528;2022-11-15T04:12:23;4.00;91.10
40622;DHT22;26324;52.040;11.528;2022-11-15T04:17:38;4.00;91.20
40622;DHT22;26324;52.040;11.528;2022-11-15T04:20:07;3.90;91.40
40622;DHT22;26324;52.040;11.528;2022-11-15T04:23:00;4.00;91.80
40622;DHT22;26324;52.040;11.528;2022-11-15T04:25:44;4.10;92.30
40622;DHT22;26324;52.040;11.528;2022-11-15T04:28:11;4.20;92.50
40622;DHT22;26324;52.040;11.528;2022-11-15T04:30:37;4.40;92.70
40622;DHT22;26324;52.040;11.528;2022-11-15T04:33:03;4.60;93.00
40622;DHT22;26324;52.040;11.528;2022-11-15T04:35:29;4.80;93.00
40622;DHT22;26324;52.040;11.528;2022-11-15T04:37:56;5.00;92.90
40622;DHT22;26324;52.040;11.528;2022-11-15T04:40:22;5.20;92.80
40622;DHT22;26324;52.040;11.528;2022-11-15T04:42:48;5.40;92.60
40622;DHT22;26324;52.040;11.528;2022-11-15T04:45:13;5.40;92.30
40622;DHT22;26324;52.040;11.528;2022-11-15T04:47:39;5.40;92.10
40622;DHT22;26324;52.040;11.528;2022-11-15T04:50:05;5.40;92.00
40622;DHT22;26324;52.040;11.528;2022-11-15T04:52:30;5.40;91.80
40622;DHT22;26324;52.040;11.528;2022-11-15T04:54:56;5.40;91.70
40622;DHT22;26324;52.040;11.528;2022-11-15T04:57:22;5.40;91.60
40622;DHT22;26324;52.040;11.528;2022-11-15T05:00:08;5.40;91.70
40622;DHT22;26324;52.040;11.528;2022-11-15T05:02:41;5.50;91.80
40622;DHT22;26324;52.040;11.528;2022-11-15T05:05:30;5.60;91.70
40622;DHT22;26324;52.040;11.528;2022-11-15T05:07:58;5.70;91.60
40622;DHT22;26324;52.040;11.528;2022-11-15T05:11:03;5.70;91.50
40622;DHT22;26324;52.040;11.528;2022-11-15T05:13:29;5.80;91.20
40622;DHT22;26324;52.040;11.528;2022-11-15T05:15:54;5.80;91.00
40622;DHT22;26324;52.040;11.528;2022-11-15T05:18:20;5.80;90.90
40622;DHT22;26324;52.040;11.528;2022-11-15T05:20:45;5.80;90.80
40622;DHT22;26324;52.040;11.528;2022-11-15T05:23:11;5.90;90.80
40622;DHT22;26324;52.040;11.528;2022-11-15T05:25:36;5.90;90.80
40622;DHT22;26324;52.040;11.528;2022-11-15T05:28:03;5.90;90.60
40622;DHT22;26324;52.040;11.528;2022-11-15T05:30:29;5.90;90.60
40622;DHT22;26324;52.040;11.528;2022-11-15T05:32:55;5.90;90.50
40622;DHT22;26324;52.040;11.528;2022-11-15T05:35:33;5.90;90.60
40622;DHT22;26324;52.040;11.528;2022-11-15T05:38:00;5.90;90.70
40622;DHT22;26324;52.040;11.528;2022-11-15T05:40:27;5.90;90.70
40622;DHT22;26324;52.040;11.528;2022-11-15T05:42:53;6.00;90.60
40622;DHT22;26324;52.040;11.528;2022-11-15T05:45:19;6.00;90.50
40622;DHT22;26324;52.040;11.528;2022-11-15T05:47:47;6.00;90.40
40622;DHT22;26324;52.040;11.528;2022-11-15T05:50:27;5.90;90.60
40622;DHT22;26324;52.040;11.528;2022-11-15T05:52:54;5.90;90.50
40622;DHT22;26324;52.040;11.528;2022-11-15T05:55:20;6.00;90.60
40622;DHT22;26324;52.040;11.528;2022-11-15T05:57:46;5.90;90.60
40622;DHT22;26324;52.040;11.528;2022-11-15T06:00:13;6.00;90.70
40622;DHT22;26324;52.040;11.528;2022-11-15T06:02:41;6.00;90.60
40622;DHT22;26324;52.040;11.528;2022-11-15T06:05:07;6.00;90.70
40622;DHT22;26324;52.040;11.528;2022-11-15T06:07:33;6.00;90.80
40622;DHT22;26324;52.040;11.528;2022-11-15T06:09:59;6.00;90.70
40622;DHT22;26324;52.040;11.528;2022-11-15T06:12:25;6.10;90.80
40622;DHT22;26324;52.040;11.528;2022-11-15T06:14:54;6.10;90.60
40622;DHT22;26324;52.040;11.528;2022-11-15T06:17:20;6.10;90.50
40622;DHT22;26324;52.040;11.528;2022-11-15T06:19:45;6.20;90.40
40622;DHT22;26324;52.040;11.528;2022-11-15T06:22:12;6.20;90.30
40622;DHT22;26324;52.040;11.528;2022-11-15T06:24:38;6.20;90.20
40622;DHT22;26324;52.040;11.528;2022-11-15T06:27:03;6.10;90.20
40622;DHT22;26324;52.040;11.528;2022-11-15T06:29:29;6.10;90.30
40622;DHT22;26324;52.040;11.528;2022-11-15T06:31:56;6.10;90.30
40622;DHT22;26324;52.040;11.528;2022-11-15T06:34:22;6.10;90.20
40622;DHT22;26324;52.040;11.528;2022-11-15T06:36:52;6.10;90.30
40622;DHT22;26324;52.040;11.528;2022-11-15T06:39:18;6.10;90.30
40622;DHT22;26324;52.040;11.528;2022-11-15T06:41:47;6.10;90.30
40622;DHT22;26324;52.040;11.528;2022-11-15T06:44:12;6.10;90.20
40622;DHT22;26324;52.040;11.528;2022-11-15T06:46:38;6.00;90.30
40622;DHT22;26324;52.040;11.528;2022-11-15T06:49:03;6.10;90.30
40622;DHT22;26324;52.040;11.528;2022-11-15T06:51:29;6.10;90.10
40622;DHT22;26324;52.040;11.528;2022-11-15T06:53:54;6.10;90.10
40622;DHT22;26324;52.040;11.528;2022-11-15T06:56:20;6.10;90.20
40622;DHT22;26324;52.040;11.528;2022-11-15T06:58:46;6.10;90.20
40622;DHT22;26324;52.040;11.528;2022-11-15T07:01:12;6.20;90.20
40622;DHT22;26324;52.040;11.528;2022-11-15T07:03:41;6.30;90.20
40622;DHT22;26324;52.040;11.528;2022-11-15T07:06:12;6.30;90.10
40622;DHT22;26324;52.040;11.528;2022-11-15T07:08:41;6.40;90.10
40622;DHT22;26324;52.040;11.528;2022-11-15T07:11:08;6.50;89.80
40622;DHT22;26324;52.040;11.528;2022-11-15T07:13:34;6.40;89.60
40622;DHT22;26324;52.040;11.528;2022-11-15T07:16:11;6.50;89.50
40622;DHT22;26324;52.040;11.528;2022-11-15T07:18:38;6.50;89.50
40622;DHT22;26324;52.040;11.528;2022-11-15T07:21:06;6.50;89.50
40622;DHT22;26324;52.040;11.528;2022-11-15T07:23:32;6.60;89.50
40622;DHT22;26324;52.040;11.528;2022-11-15T07:25:58;6.60;89.60
40622;DHT22;26324;52.040;11.528;2022-11-15T07:28:25;6.60;89.60
40622;DHT22;26324;52.040;11.528;2022-11-15T07:30:51;6.80;89.60
40622;DHT22;26324;52.040;11.528;2022-11-15T07:33:24;6.90;89.40
40622;DHT22;26324;52.040;11.528;2022-11-15T07:36:05;7.00;89.30
40622;DHT22;26324;52.040;11.528;2022-11-15T07:38:32;7.10;89.20
40622;DHT22;26324;52.040;11.528;2022-11-15T07:41:05;7.10;89.00
40622;DHT22;26324;52.040;11.528;2022-11-15T07:43:31;7.30;88.90
40622;DHT22;26324;52.040;11.528;2022-11-15T07:46:03;7.30;88.40
40622;DHT22;26324;52.040;11.528;2022-11-15T07:48:30;7.30;88.20
40622;DHT22;26324;52.040;11.528;2022-11-15T07:50:56;7.40;88.20
40622;DHT22;26324;52.040;11.528;2022-11-15T07:53:23;7.40;87.60
40622;DHT22;26324;52.040;11.528;2022-11-15T07:55:49;7.30;87.60
40622;DHT22;26324;52.040;11.528;2022-11-15T07:58:14;7.30;88.00
40622;DHT22;26324;52.040;11.528;2022-11-15T08:00:40;7.30;88.10
40622;DHT22;26324;52.040;11.528;2022-11-15T08:03:11;7.50;88.00
40622;DHT22;26324;52.040;11.528;2022-11-15T08:05:38;7.50;88.00
40622;DHT22;26324;52.040;11.528;2022-11-15T08:08:05;7.60;87.80
40622;DHT22;26324;52.040;11.528;2022-11-15T08:10:31;7.80;87.90
40622;DHT22;26324;52.040;11.528;2022-11-15T08:13:01;8.00;87.40
40622;DHT22;26324;52.040;11.528;2022-11-15T08:15:28;8.10;87.00
40622;DHT22;26324;52.040;11.528;2022-11-15T08:18:00;8.40;86.70
40622;DHT22;26324;52.040;11.528;2022-11-15T08:20:27;8.60;86.50
40622;DHT22;26324;52.040;11.528;2022-11-15T08:22:57;8.70;85.40
40622;DHT22;26324;52.040;11.528;2022-11-15T08:25:23;8.80;84.30
40622;DHT22;26324;52.040;11.528;2022-11-15T08:27:53;8.60;84.50
40622;DHT22;26324;52.040;11.528;2022-11-15T08:30:19;8.60;85.10
40622;DHT22;26324;52.040;11.528;2022-11-15T08:32:44;8.60;85.00
40622;DHT22;26324;52.040;11.528;2022-11-15T08:35:12;8.60;85.40
40622;DHT22;26324;52.040;11.528;2022-11-15T08:37:38;8.70;84.90
40622;DHT22;26324;52.040;11.528;2022-11-15T08:40:06;8.60;84.90
40622;DHT22;26324;52.040;11.528;2022-11-15T08:42:32;8.60;85.20
40622;DHT22;26324;52.040;11.528;2022-11-15T08:45:01;8.70;84.90
40622;DHT22;26324;52.040;11.528;2022-11-15T08:47:30;8.80;84.70
40622;DHT22;26324;52.040;11.528;2022-11-15T08:49:56;9.10;84.60
40622;DHT22;26324;52.040;11.528;2022-11-15T08:52:22;9.40;83.80
40622;DHT22;26324;52.040;11.528;2022-11-15T08:54:48;9.70;82.80
40622;DHT22;26324;52.040;11.528;2022-11-15T08:57:14;9.90;81.80
40622;DHT22;26324;52.040;11.528;2022-11-15T08:59:42;9.70;81.60
40622;DHT22;26324;52.040;11.528;2022-11-15T09:02:12;10.00;81.50
40622;DHT22;26324;52.040;11.528;2022-11-15T09:04:40;10.00;80.90
40622;DHT22;26324;52.040;11.528;2022-11-15T09:07:06;9.70;81.80
40622;DHT22;26324;52.040;11.528;2022-11-15T09:09:32;9.60;82.30
40622;DHT22;26324;52.040;11.528;2022-11-15T09:11:58;9.70;82.80
40622;DHT22;26324;52.040;11.528;2022-11-15T09:14:23;10.10;81.90
40622;DHT22;26324;52.040;11.528;2022-11-15T09:16:50;10.00;81.70
40622;DHT22;26324;52.040;11.528;2022-11-15T09:19:15;10.10;82.00
40622;DHT22;26324;52.040;11.528;2022-11-15T09:21:41;10.30;82.10
40622;DHT22;26324;52.040;11.528;2022-11-15T09:24:06;10.40;81.60
40622;DHT22;26324;52.040;11.528;2022-11-15T09:26:32;10.70;80.90
40622;DHT22;26324;52.040;11.528;2022-11-15T09:28:57;11.10;79.90
40622;DHT22;26324;52.040;11.528;2022-11-15T09:31:23;11.60;78.70
40622;DHT22;26324;52.040;11.528;2022-11-15T09:33:48;11.70;76.20
40622;DHT22;26324;52.040;11.528;2022-11-15T09:36:14;11.60;77.00
40622;DHT22;26324;52.040;11.528;2022-11-15T09:38:39;11.80;77.00
40622;DHT22;26324;52.040;11.528;2022-11-15T09:49:14;12.40;76.30
40622;DHT22;26324;52.040;11.528;2022-11-15T09:51:44;12.90;76.20
40622;DHT22;26324;52.040;11.528;2022-11-15T09:54:32;13.50;74.00
40622;DHT22;26324;52.040;11.528;2022-11-15T09:57:12;13.70;72.70
40622;DHT22;26324;52.040;11.528;2022-11-15T10:05:12;14.50;69.40
40622;DHT22;26324;52.040;11.528;2022-11-15T10:08:03;14.40;70.10
40622;DHT22;26324;52.040;11.528;2022-11-15T10:10:45;14.50;71.00
40622;DHT22;26324;52.040;11.528;2022-11-15T10:13:34;14.50;69.80
40622;DHT22;26324;52.040;11.528;2022-11-15T10:24:19;14.10;71.00
40622;DHT22;26324;52.040;11.528;2022-11-15T10:26:48;14.20;71.30
40622;DHT22;26324;52.040;11.528;2022-11-15T10:29:21;14.10;71.10
40622;DHT22;26324;52.040;11.528;2022-11-15T10:31:47;14.20;72.10
40622;DHT22;26324;52.040;11.528;2022-11-15T10:34:19;14.60;70.60
40622;DHT22;26324;52.040;11.528;2022-11-15T10:36:59;15.00;69.90
40622;DHT22;26324;52.040;11.528;2022-11-15T10:39:26;15.30;69.60
40622;DHT22;26324;52.040;11.528;2022-11-15T10:41:52;15.40;69.20
40622;DHT22;26324;52.040;11.528;2022-11-15T10:44:30;15.30;69.20
40622;DHT22;26324;52.040;11.528;2022-11-15T10:49:27;14.70;70.30
40622;DHT22;26324;52.040;11.528;2022-11-15T10:52:12;14.60;71.20
40622;DHT22;26324;52.040;11.528;2022-11-15T10:54:41;14.70;71.00
40622;DHT22;26324;52.040;11.528;2022-11-15T10:57:14;15.10;69.70
40622;DHT22;26324;52.040;11.528;2022-11-15T10:59:44;15.50;69.10
40622;DHT22;26324;52.040;11.528;2022-11-15T11:04:54;16.30;66.30
40622;DHT22;26324;52.040;11.528;2022-11-15T11:07:22;16.30;65.20
40622;DHT22;26324;52.040;11.528;2022-11-15T11:10:04;16.20;65.70
40622;DHT22;26324;52.040;11.528;2022-11-15T11:12:31;16.60;65.20
40622;DHT22;26324;52.040;11.528;2022-11-15T11:14:59;17.10;63.40
40622;DHT22;26324;52.040;11.528;2022-11-15T11:20:56;17.60;59.90
40622;DHT22;26324;52.040;11.528;2022-11-15T11:23:46;17.70;59.70
40622;DHT22;26324;52.040;11.528;2022-11-15T11:26:35;17.70;59.90
40622;DHT22;26324;52.040;11.528;2022-11-15T11:32:30;17.70;57.70
40622;DHT22;26324;52.040;11.528;2022-11-15T11:35:12;17.70;58.80
40622;DHT22;26324;52.040;11.528;2022-11-15T11:49:26;18.60;56.70
40622;DHT22;26324;52.040;11.528;2022-11-15T11:52:10;18.70;56.60
40622;DHT22;26324;52.040;11.528;2022-11-15T11:54:59;18.80;56.30
40622;DHT22;26324;52.040;11.528;2022-11-15T11:57:40;19.00;55.50
40622;DHT22;26324;52.040;11.528;2022-11-15T12:00:23;19.10;56.10
40622;DHT22;26324;52.040;11.528;2022-11-15T12:03:05;19.10;54.80
40622;DHT22;26324;52.040;11.528;2022-11-15T12:05:44;19.00;55.90
40622;DHT22;26324;52.040;11.528;2022-11-15T12:10:53;19.50;54.40
40622;DHT22;26324;52.040;11.528;2022-11-15T12:13:24;19.60;54.10
40622;DHT22;26324;52.040;11.528;2022-11-15T12:16:03;19.60;53.80
40622;DHT22;26324;52.040;11.528;2022-11-15T12:18:30;19.70;54.20
40622;DHT22;26324;52.040;11.528;2022-11-15T12:23:40;20.00;53.20
40622;DHT22;26324;52.040;11.528;2022-11-15T12:26:16;20.10;52.20
40622;DHT22;26324;52.040;11.528;2022-11-15T12:28:59;20.20;52.20
40622;DHT22;26324;52.040;11.528;2022-11-15T12:31:36;20.50;52.70
40622;DHT22;26324;52.040;11.528;2022-11-15T12:36:44;21.00;49.40
40622;DHT22;26324;52.040;11.528;2022-11-15T12:39:11;20.70;50.40
40622;DHT22;26324;52.040;11.528;2022-11-15T12:59:56;25.30;40.80
40622;DHT22;26324;52.040;11.528;2022-11-15T13:02:41;26.40;37.80
40622;DHT22;26324;52.040;11.528;2022-11-15T13:17:46;27.10;35.40
40622;DHT22;26324;52.040;11.528;2022-11-15T13:22:52;26.60;35.50
40622;DHT22;26324;52.040;11.528;2022-11-15T13:30:37;23.20;42.40
40622;DHT22;26324;52.040;11.528;2022-11-15T13:33:23;21.80;45.00
40622;DHT22;26324;52.040;11.528;2022-11-15T13:35:52;22.50;44.00
40622;DHT22;26324;52.040;11.528;2022-11-15T13:40:54;20.60;47.60
40622;DHT22;26324;52.040;11.528;2022-11-15T13:43:31;20.00;49.10
40622;DHT22;26324;52.040;11.528;2022-11-15T13:46:19;19.50;50.90
40622;DHT22;26324;52.040;11.528;2022-11-15T13:48:53;18.80;53.10
40622;DHT22;26324;52.040;11.528;2022-11-15T13:51:35;19.00;53.20
40622;DHT22;26324;52.040;11.528;2022-11-15T13:54:10;19.90;51.80
40622;DHT22;26324;52.040;11.528;2022-11-15T13:56:42;21.40;47.90
40622;DHT22;26324;52.040;11.528;2022-11-15T13:59:14;21.70;46.20
40622;DHT22;26324;52.040;11.528;2022-11-15T14:01:41;21.90;46.00
40622;DHT22;26324;52.040;11.528;2022-11-15T14:04:12;22.30;44.70
40622;DHT22;26324;52.040;11.528;2022-11-15T14:06:45;22.40;44.80
40622;DHT22;26324;52.040;11.528;2022-11-15T14:11:37;22.40;44.80
40622;DHT22;26324;52.040;11.528;2022-11-15T14:14:14;22.60;44.40
40622;DHT22;26324;52.040;11.528;2022-11-15T14:16:50;23.00;43.20
40622;DHT22;26324;52.040;11.528;2022-11-15T14:22:14;24.60;40.60
40622;DHT22;26324;52.040;11.528;2022-11-15T14:24:43;25.10;39.00
40622;DHT22;26324;52.040;11.528;2022-11-15T14:29:45;24.80;39.40
40622;DHT22;26324;52.040;11.528;2022-11-15T14:34:42;22.60;43.30
40622;DHT22;26324;52.040;11.528;2022-11-15T14:37:21;21.60;45.40
40622;DHT22;26324;52.040;11.528;2022-11-15T14:39:47;20.60;47.80
40622;DHT22;26324;52.040;11.528;2022-11-15T14:42:13;19.90;49.90
40622;DHT22;26324;52.040;11.528;2022-11-15T14:44:38;19.20;52.00
40622;DHT22;26324;52.040;11.528;2022-11-15T14:47:04;18.40;54.00
40622;DHT22;26324;52.040;11.528;2022-11-15T14:49:32;17.60;56.10
40622;DHT22;26324;52.040;11.528;2022-11-15T14:51:58;16.90;58.20
40622;DHT22;26324;52.040;11.528;2022-11-15T14:54:23;16.40;60.20
40622;DHT22;26324;52.040;11.528;2022-11-15T14:56:49;15.80;61.70
40622;DHT22;26324;52.040;11.528;2022-11-15T14:59:14;15.10;64.10
40622;DHT22;26324;52.040;11.528;2022-11-15T15:01:40;14.70;65.70
40622;DHT22;26324;52.040;11.528;2022-11-15T15:04:05;14.60;66.70
40622;DHT22;26324;52.040;11.528;2022-11-15T15:06:31;14.30;67.40
40622;DHT22;26324;52.040;11.528;2022-11-15T15:08:57;14.10;68.20
40622;DHT22;26324;52.040;11.528;2022-11-15T15:11:25;13.90;68.70
40622;DHT22;26324;52.040;11.528;2022-11-15T15:13:51;13.70;69.60
40622;DHT22;26324;52.040;11.528;2022-11-15T15:16:18;13.50;70.50
40622;DHT22;26324;52.040;11.528;2022-11-15T15:18:44;13.40;71.00
40622;DHT22;26324;52.040;11.528;2022-11-15T15:21:24;13.30;71.50
40622;DHT22;26324;52.040;11.528;2022-11-15T15:23:51;13.20;71.80
40622;DHT22;26324;52.040;11.528;2022-11-15T15:26:17;13.10;72.10
40622;DHT22;26324;52.040;11.528;2022-11-15T15:28:43;13.00;72.50
40622;DHT22;26324;52.040;11.528;2022-11-15T15:31:09;13.00;72.40
40622;DHT22;26324;52.040;11.528;2022-11-15T15:33:35;12.90;72.60
40622;DHT22;26324;52.040;11.528;2022-11-15T15:36:01;12.90;72.80
40622;DHT22;26324;52.040;11.528;2022-11-15T15:38:27;12.90;72.70
40622;DHT22;26324;52.040;11.528;2022-11-15T15:40:52;13.00;72.40
40622;DHT22;26324;52.040;11.528;2022-11-15T15:43:17;13.10;72.20
40622;DHT22;26324;52.040;11.528;2022-11-15T15:45:43;13.10;72.40
40622;DHT22;26324;52.040;11.528;2022-11-15T15:48:14;13.10;72.40
40622;DHT22;26324;52.040;11.528;2022-11-15T15:50:41;13.10;72.40
40622;DHT22;26324;52.040;11.528;2022-11-15T15:53:08;13.10;72.40
40622;DHT22;26324;52.040;11.528;2022-11-15T15:55:35;13.10;72.30
40622;DHT22;26324;52.040;11.528;2022-11-15T15:58:01;12.90;72.50
40622;DHT22;26324;52.040;11.528;2022-11-15T16:00:27;12.70;72.80
40622;DHT22;26324;52.040;11.528;2022-11-15T16:02:53;12.60;73.20
40622;DHT22;26324;52.040;11.528;2022-11-15T16:05:19;12.60;73.40
40622;DHT22;26324;52.040;11.528;2022-11-15T16:07:45;12.40;73.70
40622;DHT22;26324;52.040;11.528;2022-11-15T16:10:24;12.40;74.10
40622;DHT22;26324;52.040;11.528;2022-11-15T16:12:50;12.40;74.20
40622;DHT22;26324;52.040;11.528;2022-11-15T16:15:16;12.40;74.20
40622;DHT22;26324;52.040;11.528;2022-11-15T16:17:51;12.30;74.40
40622;DHT22;26324;52.040;11.528;2022-11-15T16:22:54;12.20;74.40
40622;DHT22;26324;52.040;11.528;2022-11-15T16:25:20;12.20;74.30
40622;DHT22;26324;52.040;11.528;2022-11-15T16:27:45;12.10;74.40
40622;DHT22;26324;52.040;11.528;2022-11-15T16:30:18;12.00;74.20
40622;DHT22;26324;52.040;11.528;2022-11-15T16:32:43;11.90;74.50
40622;DHT22;26324;52.040;11.528;2022-11-15T16:35:14;11.90;74.70
40622;DHT22;26324;52.040;11.528;2022-11-15T16:37:40;11.70;74.80
40622;DHT22;26324;52.040;11.528;2022-11-15T16:40:26;11.60;75.00
40622;DHT22;26324;52.040;11.528;2022-11-15T16:42:52;11.60;75.10
40622;DHT22;26324;52.040;11.528;2022-11-15T16:45:18;11.60;75.30
40622;DHT22;26324;52.040;11.528;2022-11-15T16:47:44;11.50;75.40
40622;DHT22;26324;52.040;11.528;2022-11-15T16:50:32;11.50;75.50
40622;DHT22;26324;52.040;11.528;2022-11-15T16:53:00;11.40;75.70
40622;DHT22;26324;52.040;11.528;2022-11-15T16:55:27;11.40;75.60
40622;DHT22;26324;52.040;11.528;2022-11-15T16:57:54;11.40;75.50
40622;DHT22;26324;52.040;11.528;2022-11-15T17:00:20;11.40;75.80
40622;DHT22;26324;52.040;11.528;2022-11-15T17:02:48;11.30;76.00
40622;DHT22;26324;52.040;11.528;2022-11-15T17:05:15;11.20;76.10
40622;DHT22;26324;52.040;11.528;2022-11-15T17:07:42;11.20;76.10
40622;DHT22;26324;52.040;11.528;2022-11-15T17:10:10;11.10;76.20
40622;DHT22;26324;52.040;11.528;2022-11-15T17:12:37;11.10;76.20
40622;DHT22;26324;52.040;11.528;2022-11-15T17:15:03;11.00;76.40
40622;DHT22;26324;52.040;11.528;2022-11-15T17:17:29;11.00;76.50
40622;DHT22;26324;52.040;11.528;2022-11-15T17:19:55;11.00;76.70
40622;DHT22;26324;52.040;11.528;2022-11-15T17:22:20;11.10;76.60
40622;DHT22;26324;52.040;11.528;2022-11-15T17:24:46;11.10;76.40
40622;DHT22;26324;52.040;11.528;2022-11-15T17:27:11;11.10;76.30
40622;DHT22;26324;52.040;11.528;2022-11-15T17:29:38;11.10;76.40
40622;DHT22;26324;52.040;11.528;2022-11-15T17:32:05;11.10;76.60
40622;DHT22;26324;52.040;11.528;2022-11-15T17:34:31;11.10;76.60
40622;DHT22;26324;52.040;11.528;2022-11-15T17:36:56;11.10;76.60
40622;DHT22;26324;52.040;11.528;2022-11-15T17:39:22;11.20;76.30
40622;DHT22;26324;52.040;11.528;2022-11-15T17:41:50;11.20;76.30
40622;DHT22;26324;52.040;11.528;2022-11-15T17:44:16;11.20;76.20
40622;DHT22;26324;52.040;11.528;2022-11-15T17:46:42;11.10;76.40
40622;DHT22;26324;52.040;11.528;2022-11-15T17:49:10;11.20;76.50
40622;DHT22;26324;52.040;11.528;2022-11-15T17:51:35;11.20;76.40